Al-Jouf, Saudi Arabia

1:22 AM AST on July 25, 2016 (GMT +0300)
Al Jouf | | Change Station

Elev 2260 ft 29.79 °N, 40.10 °E | Updated 22 minutes ago

Clear
Clear
84 °F
Feels Like 84 °F
N
7
Wind Variable Wind from West

Today
High -- | Low -- °F
--% Chance of Precip.
Yesterday
High -- | Low -- °F
Precip. -- in
Pressure 29.65 in
Visibility -9999.0 miles
Clouds
Dew Point 41 °F
Humidity 22%
Rainfall 0.00 in
Snow Depth Not available.
5:34 AM 7:16 PM
Waning Gibbous, 72% visible
METAR OESK 242200Z 27006KT CAVOK 29/05 Q1004 NOSIG
Pressure 29.65 in
Visibility -9999.0 miles
Clouds
Dew Point 41 °F
Humidity 22%
Rainfall 0.00 in
Snow Depth Not available.
5:34 AM 7:16 PM
Waning Gibbous, 72% visible
METAR OESK 242200Z 27006KT CAVOK 29/05 Q1004 NOSIG

10-Day Weather Forecast

No radar image for this location.
×

Almanac

Astronomy

Jul. 25, 2016 Rise Set
Actual Time
Civil Twilight
Nautical Twilight
Astronomical Twilight
Moon
Length of Visible Light
Length of Day
Tomorrow will be .
, % of the Moon is Illuminated

Today's Extremes

Country Highs Country Lows

Community

WunderPhotos

Upload Photos

1,927,203 photos uploaded!

WunderBlog® & News

Nearby

Air Quality

  Air Quality AQ Index Pollutant
Not available.

Snow Depth

Station Depth Elevation

Earthquake Activity

City Distance Mag. Time & Date
Minimum magnitude displayed is 2.5.

Coastal Water Temperatures

Place Temperature

Stations

Nearby Weather Stations

Station Location Temp. Windchill Dew Point Humidity Wind Precip. Elev Updated Type